Aviation Digital Data Service (ADDS)

Output produced by METARs form (0026 UTC 19 August 2019)
found at http://www.aviationweather.gov/metar/data/
 
Forecast for: GMME (RABAT/SALE (RMAF, MA)
Text: TAF GMME 182300Z 1900/2006 24010KT 8000 SCT020
Forecast period: 0000 UTC 19 August 2019 to 0600 UTC 20 August 2019
Forecast type: FROM: standard forecast or significant change
Winds: from the WSW (240 degrees) at 12 MPH (10 knots; 5.1 m/s)
Visibility: 5 miles (8 km)
Ceiling: at least 12,000 feet AGL
Clouds: scattered clouds at 2000 feet AGL
Weather: no significant weather forecast for this period
Text: TEMPO 1907/1916 32008KT
Forecast period: 0700 to 1600 UTC 19 August 2019
Forecast type: TEMPORARY: The following changes expected for less than half the time period
Winds: from the NW (320 degrees) at 9 MPH (8 knots; 4.1 m/s)
Visibility: missing
Ceiling: unknown
Clouds: missing
Weather: no significant weather forecast for this period